createdAt,value
2019-04-06T00:00:27.625Z,7.50
2019-04-06T00:02:57.085Z,7.49
2019-04-06T00:05:26.266Z,7.57
2019-04-06T00:07:55.564Z,7.64
2019-04-06T00:10:24.819Z,7.66
2019-04-06T00:12:54.163Z,7.65
2019-04-06T00:15:23.486Z,7.62
2019-04-06T00:17:52.695Z,7.47
2019-04-06T00:20:22.963Z,7.40
2019-04-06T00:22:52.185Z,7.49
2019-04-06T00:25:21.380Z,7.48
2019-04-06T00:27:50.726Z,7.51
2019-04-06T00:30:21.001Z,7.36
2019-04-06T00:32:55.193Z,7.48
2019-04-06T00:35:24.468Z,7.40
2019-04-06T00:37:53.686Z,7.39
2019-04-06T00:40:22.993Z,7.36
2019-04-06T00:42:52.542Z,7.41
2019-04-06T00:45:21.750Z,7.31
2019-04-06T00:47:51.056Z,7.26
2019-04-06T00:50:21.607Z,7.32
2019-04-06T00:52:50.882Z,7.35
2019-04-06T00:55:20.085Z,7.28
2019-04-06T00:57:49.276Z,7.30
2019-04-06T01:00:18.757Z,7.38
2019-04-06T01:02:47.961Z,7.36
2019-04-06T01:05:17.288Z,7.34
2019-04-06T01:07:46.584Z,7.41
2019-04-06T01:10:16.012Z,7.36
2019-04-06T01:12:45.309Z,7.46
2019-04-06T01:15:16.228Z,7.54
2019-04-06T01:17:45.488Z,7.43
2019-04-06T01:20:19.290Z,7.39
2019-04-06T01:22:48.589Z,7.49
2019-04-06T01:25:17.917Z,7.50
2019-04-06T01:27:47.193Z,7.44
2019-04-06T01:30:18.113Z,7.57
2019-04-06T01:32:47.416Z,7.41
2019-04-06T01:35:16.607Z,7.40
2019-04-06T01:37:45.887Z,7.64
2019-04-06T01:40:15.246Z,7.68
2019-04-06T01:42:44.434Z,7.60
2019-04-06T01:45:13.796Z,7.61
2019-04-06T01:47:42.980Z,7.65
2019-04-06T01:50:12.492Z,7.39
2019-04-06T01:52:41.763Z,7.36
2019-04-06T01:55:12.461Z,7.35
2019-04-06T01:57:41.869Z,7.43
2019-04-06T02:00:12.811Z,7.56
2019-04-06T02:02:44.428Z,7.49
2019-04-06T02:05:13.883Z,7.51
2019-04-06T02:07:43.096Z,7.58
2019-04-06T02:10:13.692Z,7.56
2019-04-06T02:12:42.936Z,7.36
2019-04-06T02:15:12.490Z,7.35
2019-04-06T02:17:41.873Z,7.31
2019-04-06T02:20:11.202Z,7.31
2019-04-06T02:22:40.437Z,7.38
2019-04-06T02:27:08.570Z,7.42
2019-04-06T02:29:37.756Z,7.55
2019-04-06T02:32:28.547Z,7.41
2019-04-06T02:35:22.837Z,7.36
2019-04-06T02:38:09.901Z,7.50
2019-04-06T02:40:46.819Z,7.44
2019-04-06T02:43:19.126Z,7.47
2019-04-06T02:45:48.406Z,7.50
2019-04-06T02:48:20.668Z,7.64
2019-04-06T02:50:49.961Z,7.62
2019-04-06T02:53:19.288Z,7.67
2019-04-06T02:55:49.705Z,7.61
2019-04-06T02:58:18.976Z,7.41
2019-04-06T03:00:48.400Z,7.59
2019-04-06T03:03:17.576Z,7.46
2019-04-06T03:05:49.572Z,7.57
2019-04-06T03:08:18.937Z,7.51
2019-04-06T03:10:48.102Z,7.41
2019-04-06T03:13:17.385Z,7.37
2019-04-06T03:15:47.727Z,7.40
2019-04-06T03:18:16.872Z,7.49
2019-04-06T03:20:46.910Z,7.49
2019-04-06T03:23:16.324Z,7.45
2019-04-06T03:25:46.029Z,7.49
2019-04-06T03:28:15.247Z,7.45
2019-04-06T03:30:44.781Z,7.51
2019-04-06T03:33:35.739Z,7.62
2019-04-06T03:36:05.619Z,7.60
2019-04-06T03:38:34.881Z,7.60
2019-04-06T03:41:05.249Z,7.61
2019-04-06T03:43:34.885Z,7.63
2019-04-06T03:46:04.168Z,7.54
2019-04-06T03:48:33.470Z,7.50
2019-04-06T03:51:02.658Z,7.55
2019-04-06T03:53:32.180Z,7.55
2019-04-06T03:56:01.341Z,7.59
2019-04-06T03:58:30.583Z,7.52
2019-04-06T04:00:59.815Z,7.53
2019-04-06T04:03:29.007Z,7.73
2019-04-06T04:05:58.323Z,7.78
2019-04-06T04:08:27.742Z,7.69
2019-04-06T04:10:57.192Z,7.63
2019-04-06T04:13:26.555Z,7.71
2019-04-06T04:15:57.160Z,7.66
2019-04-06T04:18:26.653Z,7.69
2019-04-06T04:20:56.174Z,7.73
2019-04-06T04:23:25.365Z,7.71
2019-04-06T04:25:54.558Z,7.68
2019-04-06T04:28:23.937Z,7.68
2019-04-06T04:30:54.614Z,7.59
2019-04-06T04:33:23.905Z,7.66
2019-04-06T04:35:53.181Z,7.69
2019-04-06T04:38:22.756Z,7.75
2019-04-06T04:40:51.939Z,7.65
2019-04-06T04:43:21.169Z,7.65
2019-04-06T04:45:51.005Z,7.77
2019-04-06T04:48:20.136Z,7.74
2019-04-06T04:50:49.413Z,7.69
2019-04-06T04:53:18.970Z,7.77
2019-04-06T04:55:48.102Z,7.76
2019-04-06T04:58:17.367Z,7.75
2019-04-06T05:00:46.565Z,7.82
2019-04-06T05:03:15.797Z,7.74
2019-04-06T05:05:44.970Z,7.80
2019-04-06T05:08:14.239Z,7.76
2019-04-06T05:10:43.390Z,7.82
2019-04-06T05:13:12.588Z,7.81
2019-04-06T05:16:21.987Z,7.77
2019-04-06T05:18:51.166Z,7.80
2019-04-06T05:21:20.355Z,7.79
2019-04-06T05:23:49.722Z,7.78
2019-04-06T05:26:18.896Z,7.87
2019-04-06T05:28:48.101Z,7.84
2019-04-06T05:31:17.286Z,7.83
2019-04-06T05:33:46.474Z,7.86
2019-04-06T05:36:15.900Z,7.90
2019-04-06T05:38:45.085Z,7.84
2019-04-06T05:41:14.290Z,7.94
2019-04-06T05:43:43.530Z,7.89
2019-04-06T05:46:12.941Z,7.95
2019-04-06T05:48:42.131Z,7.92
2019-04-06T05:51:11.453Z,7.89
2019-04-06T05:53:40.718Z,7.91
2019-04-06T05:56:10.354Z,7.92
2019-04-06T05:58:40.827Z,8.02
2019-04-06T06:01:11.327Z,8.00
2019-04-06T06:03:41.340Z,7.97
2019-04-06T06:06:12.573Z,8.04
2019-04-06T06:08:41.828Z,8.06
2019-04-06T06:11:11.026Z,8.05
2019-04-06T06:13:40.481Z,8.05
2019-04-06T06:16:11.511Z,8.09
2019-04-06T06:18:40.633Z,8.14
2019-04-06T06:21:09.806Z,8.15
2019-04-06T06:23:39.022Z,8.30
2019-04-06T06:26:08.323Z,8.49
2019-04-06T06:28:39.272Z,8.88
2019-04-06T06:31:08.571Z,9.00
2019-04-06T06:33:37.822Z,9.11
2019-04-06T06:36:07.058Z,8.97
2019-04-06T06:38:36.271Z,8.93
2019-04-06T06:41:05.561Z,8.90
2019-04-06T06:43:34.993Z,8.93
2019-04-06T06:46:06.664Z,9.03
2019-04-06T06:48:35.920Z,9.07
2019-04-06T06:51:05.466Z,9.00
2019-04-06T06:53:36.482Z,9.12
2019-04-06T06:56:05.717Z,9.22
2019-04-06T06:58:34.889Z,9.08
2019-04-06T07:01:05.379Z,9.11
2019-04-06T07:03:34.613Z,9.14
2019-04-06T07:06:03.800Z,9.05
2019-04-06T07:08:33.063Z,9.10
2019-04-06T07:11:05.581Z,9.11
2019-04-06T07:13:34.757Z,9.17
2019-04-06T07:16:03.938Z,9.19
2019-04-06T07:18:33.208Z,9.24
2019-04-06T07:21:02.392Z,9.38
2019-04-06T07:23:31.544Z,9.23
2019-04-06T07:26:00.772Z,9.47
2019-04-06T07:28:37.829Z,9.50
2019-04-06T07:31:00.809Z,9.52
2019-04-06T07:33:30.104Z,9.56
2019-04-06T07:35:59.304Z,9.66
2019-04-06T07:38:28.508Z,9.53
2019-04-06T07:40:57.932Z,9.74
2019-04-06T07:43:27.193Z,9.66
2019-04-06T07:45:58.884Z,9.68
2019-04-06T07:48:28.078Z,9.63
2019-04-06T07:50:57.328Z,9.56
2019-04-06T07:53:26.538Z,9.53
2019-04-06T07:55:55.741Z,9.70
2019-04-06T07:58:26.196Z,9.55
2019-04-06T08:00:55.368Z,9.53
2019-04-06T08:03:24.719Z,9.75
2019-04-06T08:05:53.919Z,9.61
2019-04-06T08:08:23.488Z,9.75
2019-04-06T08:10:52.741Z,9.68
2019-04-06T08:13:22.006Z,9.83
2019-04-06T08:15:51.217Z,9.92
2019-04-06T08:18:21.406Z,9.96
2019-04-06T08:20:50.674Z,10.25
2019-04-06T08:23:19.974Z,10.41
2019-04-06T08:25:49.211Z,10.30
2019-04-06T08:28:18.660Z,10.18
2019-04-06T08:30:50.071Z,10.27
2019-04-06T08:33:22.219Z,10.20
2019-04-06T08:35:51.503Z,10.26
2019-04-06T08:38:22.288Z,10.47
2019-04-06T08:40:51.474Z,10.68
2019-04-06T08:43:20.698Z,10.83
2019-04-06T08:45:49.987Z,10.59
2019-04-06T08:48:19.196Z,10.72
2019-04-06T08:50:48.526Z,10.57
2019-04-06T08:53:19.258Z,10.71
2019-04-06T08:55:48.753Z,10.81
2019-04-06T08:58:17.939Z,10.74
2019-04-06T09:00:47.561Z,10.70
2019-04-06T09:03:17.121Z,10.63
2019-04-06T09:05:46.315Z,10.71
2019-04-06T09:08:16.551Z,10.81
2019-04-06T09:10:45.865Z,10.86
2019-04-06T09:13:15.386Z,10.85
2019-04-06T09:15:44.674Z,10.86
2019-04-06T09:18:14.055Z,10.81
2019-04-06T09:20:43.336Z,10.65
2019-04-06T09:23:12.570Z,10.84
2019-04-06T09:25:41.855Z,11.02
2019-04-06T09:28:11.251Z,10.96
2019-04-06T09:30:42.072Z,11.15
2019-04-06T09:33:11.326Z,11.29
2019-04-06T09:35:40.644Z,11.41
2019-04-06T09:38:19.003Z,11.29
2019-04-06T09:40:49.404Z,11.21
2019-04-06T09:43:18.868Z,11.57
2019-04-06T09:46:07.381Z,11.56
2019-04-06T09:48:54.181Z,11.59
2019-04-06T09:51:41.856Z,12.12
2019-04-06T09:54:29.156Z,11.68
2019-04-06T09:57:19.698Z,11.92
2019-04-06T09:59:57.666Z,11.97
2019-04-06T10:02:35.297Z,12.24
2019-04-06T10:05:17.858Z,12.30
2019-04-06T10:08:07.887Z,12.43
2019-04-06T10:10:43.736Z,12.42
2019-04-06T10:13:23.423Z,12.20
2019-04-06T10:16:02.292Z,12.26
2019-04-06T10:18:51.087Z,12.32
2019-04-06T10:21:56.332Z,12.28
2019-04-06T10:24:33.969Z,12.34
2019-04-06T10:27:13.020Z,12.53
2019-04-06T10:30:03.904Z,13.04
2019-04-06T10:32:49.965Z,13.05
2019-04-06T10:35:37.204Z,13.43
2019-04-06T10:38:17.897Z,13.52
2019-04-06T10:41:02.433Z,13.88
2019-04-06T10:43:53.978Z,14.24
2019-04-06T10:46:45.195Z,13.68
2019-04-06T10:49:32.322Z,13.88
2019-04-06T10:52:29.584Z,14.07
2019-04-06T10:55:10.364Z,14.23
2019-04-06T10:57:57.136Z,13.74
2019-04-06T11:00:32.093Z,13.52
2019-04-06T11:03:09.624Z,13.60
2019-04-06T11:05:57.882Z,13.69
2019-04-06T11:08:52.185Z,13.74
2019-04-06T11:11:37.581Z,14.00
2019-04-06T11:14:30.620Z,13.99
2019-04-06T11:17:17.789Z,14.51
2019-04-06T11:20:06.503Z,15.17
2019-04-06T11:22:50.542Z,14.64
2019-04-06T11:25:36.723Z,15.05
2019-04-06T11:28:26.771Z,16.02
2019-04-06T11:31:14.269Z,15.80
2019-04-06T11:34:15.035Z,15.80
2019-04-06T11:36:56.754Z,15.21
2019-04-06T11:39:48.293Z,15.28
2019-04-06T11:42:28.044Z,15.57
2019-04-06T11:45:03.407Z,15.58
2019-04-06T11:47:54.236Z,16.31
2019-04-06T11:50:45.503Z,16.71
2019-04-06T11:53:36.395Z,16.20
2019-04-06T11:56:22.909Z,16.81
2019-04-06T11:59:29.334Z,16.36
2019-04-06T12:02:23.441Z,16.14
2019-04-06T12:05:02.709Z,17.21
2019-04-06T12:07:53.616Z,17.39
2019-04-06T12:10:28.336Z,16.74
2019-04-06T12:13:15.650Z,16.31
2019-04-06T12:15:55.196Z,16.26
2019-04-06T12:18:49.513Z,16.51
2019-04-06T12:21:53.897Z,16.29
2019-04-06T12:24:42.283Z,17.12
2019-04-06T12:27:21.946Z,17.64
2019-04-06T12:30:36.938Z,16.89
2019-04-06T12:33:13.384Z,16.29
2019-04-06T12:36:16.914Z,15.95
2019-04-06T12:39:10.949Z,16.94
2019-04-06T12:42:02.607Z,17.10
2019-04-06T12:44:49.741Z,16.33
2019-04-06T12:47:38.312Z,16.17
2019-04-06T12:50:37.515Z,16.81
2019-04-06T12:53:19.516Z,16.54
2019-04-06T12:56:06.220Z,18.57
2019-04-06T12:59:04.297Z,17.72
2019-04-06T13:01:52.494Z,18.25
2019-04-06T13:04:40.512Z,17.65
2019-04-06T13:07:43.766Z,17.43
2019-04-06T13:10:25.905Z,18.09
2019-04-06T13:13:17.152Z,18.52
2019-04-06T13:15:51.957Z,19.37
2019-04-06T13:18:40.094Z,18.86
2019-04-06T13:21:26.979Z,18.58
2019-04-06T13:24:05.352Z,18.34
2019-04-06T13:26:42.204Z,18.41
2019-04-06T13:29:36.239Z,17.88
2019-04-06T13:32:27.631Z,18.73
2019-04-06T13:35:16.144Z,16.95
2019-04-06T13:38:15.083Z,16.91
2019-04-06T13:41:07.724Z,16.63
2019-04-06T13:43:42.719Z,17.81
2019-04-06T13:46:27.423Z,17.05
2019-04-06T13:49:18.856Z,17.90
2019-04-06T13:52:12.463Z,17.69
2019-04-06T13:54:55.697Z,18.98
2019-04-06T13:57:43.798Z,19.65
2019-04-06T14:00:50.572Z,20.12
2019-04-06T14:03:36.863Z,21.21
2019-04-06T14:06:23.835Z,22.34
2019-04-06T14:09:29.887Z,21.40
2019-04-06T14:12:07.633Z,20.24
2019-04-06T14:14:51.123Z,19.58
2019-04-06T14:17:57.700Z,19.29
2019-04-06T14:20:36.808Z,19.60
2019-04-06T14:23:22.945Z,19.50
2019-04-06T14:26:10.132Z,18.92
2019-04-06T14:28:50.542Z,19.24
2019-04-06T14:31:35.814Z,17.74
2019-04-06T14:34:36.189Z,17.30
2019-04-06T14:37:23.320Z,17.69
2019-04-06T14:40:10.589Z,18.78
2019-04-06T14:43:05.086Z,19.65
2019-04-06T14:46:00.431Z,19.64
2019-04-06T14:48:51.456Z,20.82
2019-04-06T14:51:32.137Z,20.94
2019-04-06T14:54:08.189Z,19.21
2019-04-06T14:56:53.587Z,19.14
2019-04-06T14:59:47.531Z,19.49
2019-04-06T15:02:32.694Z,19.83
2019-04-06T15:05:33.539Z,19.54
2019-04-06T15:08:27.935Z,20.72
2019-04-06T15:11:25.107Z,20.67
2019-04-06T15:14:16.423Z,21.55
2019-04-06T15:17:00.134Z,20.28
2019-04-06T15:19:36.954Z,20.09
2019-04-06T15:22:19.662Z,20.47
2019-04-06T15:25:09.237Z,20.37
2019-04-06T15:27:44.990Z,19.58
2019-04-06T15:30:39.631Z,19.81
2019-04-06T15:33:34.568Z,19.38
2019-04-06T15:36:31.957Z,18.85
2019-04-06T15:39:26.237Z,19.10
2019-04-06T15:42:06.968Z,20.47
2019-04-06T15:44:56.180Z,20.16
2019-04-06T15:47:53.339Z,19.98
2019-04-06T15:50:40.658Z,20.09
2019-04-06T15:53:27.474Z,20.48
2019-04-06T15:56:14.300Z,21.90
2019-04-06T15:59:08.409Z,23.20
2019-04-06T16:02:01.342Z,22.66
2019-04-06T16:04:49.164Z,21.23
2019-04-06T16:07:36.226Z,21.40
2019-04-06T16:10:28.285Z,20.27
2019-04-06T16:13:34.646Z,20.88
2019-04-06T16:16:13.356Z,20.84
2019-04-06T16:19:04.878Z,22.49
2019-04-06T16:21:53.273Z,20.61
2019-04-06T16:24:39.504Z,20.15
2019-04-06T16:27:39.917Z,21.01
2019-04-06T16:30:37.679Z,21.19
2019-04-06T16:33:26.193Z,21.60
2019-04-06T16:36:23.419Z,21.06
2019-04-06T16:39:13.149Z,20.75
2019-04-06T16:42:07.651Z,20.39
2019-04-06T16:44:49.190Z,19.99
2019-04-06T16:47:27.994Z,20.29
2019-04-06T16:50:37.963Z,20.71
2019-04-06T16:53:25.318Z,20.19
2019-04-06T16:56:18.974Z,19.74
2019-04-06T16:58:54.285Z,20.36
2019-04-06T17:01:52.416Z,19.69
2019-04-06T17:04:29.473Z,19.06
2019-04-06T17:07:28.536Z,19.23
2019-04-06T17:10:20.667Z,19.10
2019-04-06T17:13:23.666Z,18.91
2019-04-06T17:16:18.103Z,19.20
2019-04-06T17:19:11.315Z,18.76
2019-04-06T17:21:55.647Z,18.63
2019-04-06T17:24:49.676Z,18.31
2019-04-06T17:27:40.960Z,17.62
2019-04-06T17:30:29.173Z,17.24
2019-04-06T17:33:13.034Z,17.06
2019-04-06T17:35:51.846Z,16.50
2019-04-06T17:38:40.004Z,16.34
2019-04-06T17:41:34.128Z,15.96
2019-04-06T17:44:20.979Z,15.71
2019-04-06T17:47:07.872Z,15.48
2019-04-06T17:49:59.242Z,15.31
2019-04-06T17:52:47.465Z,15.27
2019-04-06T17:55:34.720Z,15.08
2019-04-06T17:58:21.763Z,14.94
2019-04-06T18:01:10.161Z,14.83
2019-04-06T18:03:59.336Z,14.73
2019-04-06T18:07:02.578Z,14.60
2019-04-06T18:09:47.123Z,14.53
2019-04-06T18:12:23.597Z,14.41
2019-04-06T18:14:52.982Z,14.34
2019-04-06T18:17:22.209Z,14.30
2019-04-06T18:19:51.965Z,14.23
2019-04-06T18:22:21.149Z,14.12
2019-04-06T18:24:50.330Z,14.02
2019-04-06T18:27:19.556Z,13.89
2019-04-06T18:29:49.290Z,13.93
2019-04-06T18:32:35.967Z,13.80
2019-04-06T18:35:05.416Z,13.71
2019-04-06T18:38:02.774Z,13.75
2019-04-06T18:40:32.964Z,13.74
2019-04-06T18:43:03.378Z,13.61
2019-04-06T18:45:33.550Z,13.63
2019-04-06T18:48:02.754Z,13.53
2019-04-06T18:50:35.974Z,13.48
2019-04-06T18:53:03.416Z,13.45
2019-04-06T18:55:32.756Z,13.38
2019-04-06T18:58:10.699Z,13.40
2019-04-06T19:00:33.551Z,13.31
2019-04-06T19:03:12.564Z,13.21
2019-04-06T19:05:33.902Z,13.21
2019-04-06T19:08:03.125Z,12.85
2019-04-06T19:10:32.629Z,12.91
2019-04-06T19:13:02.162Z,12.93
2019-04-06T19:15:32.062Z,12.85
2019-04-06T19:18:02.174Z,12.78
2019-04-06T19:20:31.955Z,12.62
2019-04-06T19:23:01.469Z,12.60
2019-04-06T19:25:30.797Z,12.59
2019-04-06T19:28:00.146Z,12.43
2019-04-06T19:30:29.708Z,12.50
2019-04-06T19:32:59.089Z,12.47
2019-04-06T19:35:29.206Z,12.36
2019-04-06T19:38:00.519Z,12.40
2019-04-06T19:40:30.292Z,12.21
2019-04-06T19:43:00.033Z,12.03
2019-04-06T19:45:29.331Z,11.99
2019-04-06T19:47:58.740Z,11.99
2019-04-06T19:50:29.014Z,11.93
2019-04-06T19:52:58.519Z,11.93
2019-04-06T19:55:28.120Z,11.77
2019-04-06T19:57:57.450Z,11.73
2019-04-06T20:00:27.260Z,11.65
2019-04-06T20:02:56.552Z,11.68
2019-04-06T20:05:26.321Z,11.69
2019-04-06T20:07:55.816Z,11.54
2019-04-06T20:10:25.218Z,11.48
2019-04-06T20:12:54.682Z,11.53
2019-04-06T20:15:24.326Z,11.52
2019-04-06T20:17:53.831Z,11.36
2019-04-06T20:20:23.261Z,11.23
2019-04-06T20:22:52.767Z,11.22
2019-04-06T20:25:22.061Z,11.18
2019-04-06T20:27:51.312Z,11.01
2019-04-06T20:30:21.661Z,11.01
2019-04-06T20:32:51.186Z,10.94
2019-04-06T20:35:21.205Z,10.77
2019-04-06T20:37:50.361Z,10.75
2019-04-06T20:40:19.709Z,10.71
2019-04-06T20:42:49.477Z,10.66
2019-04-06T20:45:19.223Z,10.58
2019-04-06T20:47:48.591Z,10.54
2019-04-06T20:50:18.010Z,10.47
2019-04-06T20:52:47.312Z,10.41
2019-04-06T20:55:16.692Z,10.36
2019-04-06T20:57:46.164Z,10.34
2019-04-06T21:00:15.523Z,10.37
2019-04-06T21:02:45.145Z,10.28
2019-04-06T21:05:14.810Z,10.27
2019-04-06T21:07:44.074Z,10.23
2019-04-06T21:10:15.786Z,10.25
2019-04-06T21:12:44.989Z,10.16
2019-04-06T21:15:20.018Z,10.10
2019-04-06T21:17:46.083Z,10.13
2019-04-06T21:20:18.387Z,10.08
2019-04-06T21:22:47.674Z,10.05
2019-04-06T21:25:16.915Z,10.03
2019-04-06T21:27:46.454Z,9.98
2019-04-06T21:30:17.349Z,9.89
2019-04-06T21:32:48.773Z,9.85
2019-04-06T21:35:18.117Z,9.82
2019-04-06T21:37:47.294Z,9.73
2019-04-06T21:40:19.773Z,9.66
2019-04-06T21:42:49.909Z,9.59
2019-04-06T21:45:19.671Z,9.58
2019-04-06T21:47:49.539Z,9.50
2019-04-06T21:50:18.874Z,9.50
2019-04-06T21:52:49.365Z,9.45
2019-04-06T21:55:19.486Z,9.56
2019-04-06T21:57:48.751Z,9.97
2019-04-06T22:00:27.800Z,9.97
2019-04-06T22:02:56.906Z,9.83
2019-04-06T22:05:26.245Z,9.87
2019-04-06T22:07:56.105Z,9.86
2019-04-06T22:10:25.337Z,9.88
2019-04-06T22:12:54.713Z,9.70
2019-04-06T22:15:23.944Z,9.81
2019-04-06T22:17:53.356Z,9.82
2019-04-06T22:20:28.065Z,9.81
2019-04-06T22:22:57.373Z,9.82
2019-04-06T22:25:26.516Z,9.86
2019-04-06T22:27:55.728Z,9.80
2019-04-06T22:30:24.858Z,9.85
2019-04-06T22:32:54.025Z,9.97
2019-04-06T22:35:23.247Z,10.00
2019-04-06T22:37:54.709Z,9.98
2019-04-06T22:40:23.873Z,9.82
2019-04-06T22:42:53.074Z,9.97
2019-04-06T22:45:23.208Z,9.75
2019-04-06T22:47:52.361Z,9.73
2019-04-06T22:50:22.056Z,9.70
2019-04-06T22:52:51.522Z,9.78
2019-04-06T22:55:21.003Z,9.81
2019-04-06T22:57:50.467Z,9.83
2019-04-06T23:00:29.587Z,9.85
2019-04-06T23:03:16.796Z,9.74
2019-04-06T23:05:48.964Z,9.55
2019-04-06T23:08:18.165Z,9.37
2019-04-06T23:10:47.581Z,9.23
2019-04-06T23:13:17.774Z,9.14
2019-04-06T23:15:47.991Z,9.03
2019-04-06T23:18:18.037Z,8.95
2019-04-06T23:20:47.555Z,8.89
2019-04-06T23:23:16.702Z,8.92
2019-04-06T23:25:46.453Z,8.95
2019-04-06T23:28:15.993Z,8.86
2019-04-06T23:30:45.315Z,8.81
2019-04-06T23:33:14.776Z,8.78
2019-04-06T23:35:44.033Z,8.76
2019-04-06T23:38:13.313Z,8.84
2019-04-06T23:40:42.466Z,8.95
2019-04-06T23:43:11.850Z,8.86
2019-04-06T23:45:41.189Z,8.91
2019-04-06T23:48:10.749Z,8.93
2019-04-06T23:50:40.512Z,9.00
2019-04-06T23:53:11.500Z,8.90
2019-04-06T23:55:41.091Z,8.92
2019-04-06T23:58:10.844Z,8.93
